Time;durP1;ratioP1;P1;durP2;ratioP2;P2;SDS_P1;SDS_P2;PMS_P1;PMS_P2;Temp;Humidity;BMP_temperature;BMP_pressure;BME280_temperature;BME280_humidity;BME280_pressure;Samples;Min_cycle;Max_cycle;Signal;HPM_P1;HPM_P2
2022/05/23 00:02:07;;;;;;;;;;;;;;;12.73;74.38;94878.78;5113582;28;995;-47
2022/05/23 00:04:33;;;;;;;;;;;;;;;12.87;73.87;94869.09;5114218;28;1164;-47
2022/05/23 00:06:59;;;;;;;;;;;;;;;12.79;73.87;94864.63;5133967;28;1075;-47
2022/05/23 00:09:26;;;;;;;;;;;;;;;12.77;74.08;94868.53;5133596;27;1083;-48
2022/05/23 00:11:52;;;;;;;;;;;;;;;12.63;74.75;94875.50;5134343;27;1139;-47
2022/05/23 00:14:19;;;;;;;;;;;;;;;12.61;74.93;94872.16;5133700;27;1095;-47
2022/05/23 00:16:46;;;;;;;;;;;;;;;12.61;74.87;94872.16;5133849;27;1909;-47
2022/05/23 00:19:13;;;;;;;;;;;;;;;12.55;74.71;94870.19;5133642;27;1094;-47
2022/05/23 00:21:40;;;;;;;;;;;;;;;12.28;75.84;94875.09;5134046;27;960;-47
2022/05/23 00:24:10;;;;;;;;;;;;;;;12.11;76.70;94872.50;5133779;27;1032;-47
2022/05/23 00:26:38;;;;;;;;;;;;;;;12.21;76.65;94866.91;5133993;27;999;-47
2022/05/23 00:29:04;;;;;;;;;;;;;;;12.39;75.94;94868.50;5132721;28;1534;-47
2022/05/23 00:31:30;;;;;;;;;;;;;;;12.64;75.17;94871.81;5133707;28;1105;-47
2022/05/23 00:36:41;;;;;;;;;;;;;;;12.60;74.96;94867.81;5133912;28;1982;-47
2022/05/23 00:39:07;;;;;;;;;;;;;;;12.59;75.28;94866.13;5133651;27;1039;-47
2022/05/23 00:44:19;;;;;;;;;;;;;;;12.46;74.81;94875.63;5133483;28;1075;-47
2022/05/23 00:46:49;;;;;;;;;;;;;;;12.34;74.80;94871.69;5133539;27;1015;-47
2022/05/23 00:49:18;;;;;;;;;;;;;;;12.19;75.51;94870.81;5133659;27;1040;-47
2022/05/23 00:51:44;;;;;;;;;;;;;;;12.30;75.19;94863.16;5133555;27;1028;-47
2022/05/23 00:54:10;;;;;;;;;;;;;;;12.35;75.47;94859.13;5133258;27;1048;-47
2022/05/23 00:56:41;;;;;;;;;;;;;;;12.15;75.62;94872.16;5133465;27;1996;-47
2022/05/23 00:59:08;;;;;;;;;;;;;;;11.88;76.47;94867.09;5133430;27;1040;-47
2022/05/23 01:01:35;;;;;;;;;;;;;;;11.78;76.95;94863.81;5133621;27;1043;-47
2022/05/23 01:04:02;;;;;;;;;;;;;;;11.97;76.20;94864.41;5136952;27;1024;-47
2022/05/23 01:06:28;;;;;;;;;;;;;;;12.01;76.19;94871.06;5120087;27;1211;-47
2022/05/23 01:08:55;;;;;;;;;;;;;;;12.03;76.51;94866.38;5116602;28;1173;-47
2022/05/23 01:11:22;;;;;;;;;;;;;;;12.10;76.27;94860.16;5116533;28;1031;-47
2022/05/23 01:13:48;;;;;;;;;;;;;;;12.22;75.64;94851.69;5116299;28;1236;-47
2022/05/23 01:16:14;;;;;;;;;;;;;;;12.07;75.85;94857.81;5116401;28;2047;-47
2022/05/23 01:18:40;;;;;;;;;;;;;;;11.92;76.69;94859.59;5116519;28;952;-47
2022/05/23 01:21:09;;;;;;;;;;;;;;;12.05;76.31;94865.19;5116584;28;964;-47
2022/05/23 01:23:44;;;;;;;;;;;;;;;12.10;75.90;94876.22;5115963;28;1071;-47
2022/05/23 01:26:11;;;;;;;;;;;;;;;12.17;75.72;94862.09;5116053;28;1032;-47
2022/05/23 01:28:38;;;;;;;;;;;;;;;12.11;75.49;94866.31;5097928;28;1024;-47
2022/05/23 01:31:09;;;;;;;;;;;;;;;11.88;76.06;94869.78;5116226;28;1043;-47
2022/05/23 01:33:35;;;;;;;;;;;;;;;11.90;76.01;94858.91;5116339;28;956;-47
2022/05/23 01:36:01;;;;;;;;;;;;;;;11.94;76.05;94860.22;5116307;28;1914;-47
2022/05/23 01:38:28;;;;;;;;;;;;;;;12.00;75.73;94859.53;5116131;28;1016;-47
2022/05/23 01:40:54;;;;;;;;;;;;;;;12.02;75.19;94856.66;5115775;28;1035;-47
2022/05/23 01:43:21;;;;;;;;;;;;;;;11.96;75.43;94852.84;5116175;28;1023;-47
2022/05/23 01:45:47;;;;;;;;;;;;;;;11.78;75.91;94850.44;5115787;28;1324;-47
2022/05/23 01:48:13;;;;;;;;;;;;;;;11.72;76.58;94856.47;5116061;28;992;-47
2022/05/23 01:50:39;;;;;;;;;;;;;;;11.89;76.65;94867.94;5115586;28;968;-47
2022/05/23 01:53:05;;;;;;;;;;;;;;;11.88;76.44;94864.41;5115819;28;1307;-47
2022/05/23 01:55:32;;;;;;;;;;;;;;;12.00;75.68;94864.06;5115363;28;960;-47
2022/05/23 01:57:58;;;;;;;;;;;;;;;11.89;76.14;94865.25;5115533;28;1902;-47
2022/05/23 02:03:09;;;;;;;;;;;;;;;11.44;76.79;94869.47;5115866;28;960;-48
2022/05/23 02:05:35;;;;;;;;;;;;;;;11.49;76.75;94880.50;5124722;27;1216;-48
2022/05/23 02:08:01;;;;;;;;;;;;;;;11.58;76.54;94884.00;5135873;27;941;-48
2022/05/23 02:10:28;;;;;;;;;;;;;;;11.56;76.53;94875.31;5135787;27;1031;-48
2022/05/23 02:12:56;;;;;;;;;;;;;;;11.66;75.69;94875.91;5135886;27;1083;-48
2022/05/23 02:15:22;;;;;;;;;;;;;;;11.61;76.39;94880.94;5134666;27;1858;-48
2022/05/23 02:17:48;;;;;;;;;;;;;;;11.59;76.43;94878.47;5135997;27;1980;-48
2022/05/23 02:20:14;;;;;;;;;;;;;;;11.40;76.34;94873.50;5135858;27;1187;-48
2022/05/23 02:22:41;;;;;;;;;;;;;;;11.31;76.96;94875.41;5136158;27;959;-48
2022/05/23 02:25:07;;;;;;;;;;;;;;;11.35;76.77;94873.22;5135587;27;976;-48
2022/05/23 02:27:34;;;;;;;;;;;;;;;11.21;77.78;94870.25;5135397;27;989;-48
2022/05/23 02:30:00;;;;;;;;;;;;;;;11.44;78.00;94869.47;5135570;27;1059;-48
2022/05/23 02:32:27;;;;;;;;;;;;;;;11.67;77.17;94873.06;5135278;27;933;-56
2022/05/23 02:34:53;;;;;;;;;;;;;;;11.72;76.76;94873.38;5135434;27;2179;-48
2022/05/23 02:37:19;;;;;;;;;;;;;;;11.74;76.30;94875.88;5135380;27;1988;-48
2022/05/23 02:39:45;;;;;;;;;;;;;;;11.53;76.37;94865.75;5135390;27;961;-48
2022/05/23 02:42:11;;;;;;;;;;;;;;;11.41;77.12;94861.81;5135476;27;1140;-48
2022/05/23 02:44:37;;;;;;;;;;;;;;;11.38;77.25;94871.00;5134237;27;1094;-48
2022/05/23 02:47:03;;;;;;;;;;;;;;;11.22;77.94;94871.91;5135335;27;969;-48
2022/05/23 02:49:29;;;;;;;;;;;;;;;11.21;78.09;94875.59;5134166;27;1020;-47
2022/05/23 02:51:56;;;;;;;;;;;;;;;11.26;77.90;94883.09;5134817;27;1036;-47
2022/05/23 02:54:22;;;;;;;;;;;;;;;11.32;77.70;94866.34;5135024;27;1004;-48
2022/05/23 02:56:48;;;;;;;;;;;;;;;11.51;77.44;94883.84;5135024;27;1996;-48
2022/05/23 02:59:14;;;;;;;;;;;;;;;11.70;76.72;94877.22;5134938;27;1258;-48
2022/05/23 03:04:24;;;;;;;;;;;;;;;11.27;76.82;94868.72;5134693;27;1099;-48
2022/05/23 03:06:50;;;;;;;;;;;;;;;11.26;77.07;94861.69;5114581;27;1156;-48
2022/05/23 03:09:16;;;;;;;;;;;;;;;11.36;76.65;94856.94;5114462;28;975;-48
2022/05/23 03:11:42;;;;;;;;;;;;;;;11.22;77.05;94852.34;5114199;28;960;-48
2022/05/23 03:14:09;;;;;;;;;;;;;;;11.11;77.83;94846.31;5114012;28;1237;-48
2022/05/23 03:16:35;;;;;;;;;;;;;;;11.26;77.67;94829.56;5113771;28;2013;-48
2022/05/23 03:19:01;;;;;;;;;;;;;;;11.32;78.25;94828.88;5114020;28;1028;-48
2022/05/23 03:27:00;;;;;;;;;;;;;;;11.72;77.38;94851.09;5113832;28;1008;-48
2022/05/23 03:29:30;;;;;;;;;;;;;;;11.73;77.75;94858.16;5113810;28;984;-48
2022/05/23 03:31:56;;;;;;;;;;;;;;;11.66;77.02;94854.50;5113963;28;958;-47
2022/05/23 03:34:22;;;;;;;;;;;;;;;11.51;78.05;94854.38;5113932;28;968;-48
2022/05/23 03:36:48;;;;;;;;;;;;;;;11.68;78.11;94844.44;5113561;28;1901;-48
2022/05/23 03:39:15;;;;;;;;;;;;;;;11.88;77.69;94821.56;5113974;28;984;-47
2022/05/23 03:41:41;;;;;;;;;;;;;;;11.90;78.21;94806.16;5113784;28;1043;-48
2022/05/23 03:44:10;;;;;;;;;;;;;;;11.82;78.86;94819.59;5113580;28;1087;-48
2022/05/23 03:46:36;;;;;;;;;;;;;;;11.89;78.87;94836.66;5113731;28;1022;-48
2022/05/23 03:49:03;;;;;;;;;;;;;;;11.94;78.71;94840.66;5113804;28;980;-48
2022/05/23 03:51:29;;;;;;;;;;;;;;;12.08;78.62;94855.94;5113704;28;1059;-48
2022/05/23 03:53:55;;;;;;;;;;;;;;;12.30;78.45;94860.50;5113153;28;1024;-48
2022/05/23 03:56:21;;;;;;;;;;;;;;;12.61;77.84;94862.25;5112602;28;1905;-48
2022/05/23 03:58:47;;;;;;;;;;;;;;;12.69;76.90;94859.53;5113389;28;1095;-48
2022/05/23 04:01:15;;;;;;;;;;;;;;;12.75;76.71;94857.09;5114109;28;1023;-48
2022/05/23 04:03:42;;;;;;;;;;;;;;;12.96;76.12;94857.25;5113260;28;1032;-48
2022/05/23 04:06:08;;;;;;;;;;;;;;;13.17;75.95;94853.03;5127676;28;1216;-47
2022/05/23 04:08:35;;;;;;;;;;;;;;;13.46;75.92;94857.59;5133668;27;1854;-48
2022/05/23 04:11:02;;;;;;;;;;;;;;;13.73;75.12;94863.28;5134269;27;1043;-48
2022/05/23 04:13:28;;;;;;;;;;;;;;;13.96;74.36;94874.75;5133545;27;1317;-48
2022/05/23 04:15:55;;;;;;;;;;;;;;;14.36;73.03;94882.41;5134182;27;1980;-48
2022/05/23 04:18:21;;;;;;;;;;;;;;;14.50;72.89;94889.59;5133958;27;1010;-48
2022/05/23 04:20:47;;;;;;;;;;;;;;;14.38;73.79;94910.81;5133900;28;1040;-48
2022/05/23 04:23:14;;;;;;;;;;;;;;;14.18;75.21;94907.88;5133740;27;1047;-48
2022/05/23 04:25:41;;;;;;;;;;;;;;;14.21;74.91;94882.50;5133583;27;1032;-48
2022/05/23 04:28:07;;;;;;;;;;;;;;;14.23;76.81;94892.03;5133659;27;1872;-48
2022/05/23 04:30:33;;;;;;;;;;;;;;;14.16;76.74;94877.66;5134030;27;1047;-47
2022/05/23 04:35:44;;;;;;;;;;;;;;;14.00;80.63;94892.19;5133647;28;1971;-47
2022/05/23 04:38:11;;;;;;;;;;;;;;;13.93;80.83;94885.06;5135986;27;1082;-48
2022/05/23 04:40:38;;;;;;;;;;;;;;;13.93;80.09;94871.63;5137506;27;1051;-47
2022/05/23 04:43:05;;;;;;;;;;;;;;;13.96;81.17;94855.94;5137793;27;977;-48
2022/05/23 04:45:31;;;;;;;;;;;;;;;14.09;80.50;94855.25;5137732;27;1035;-47
2022/05/23 04:50:42;;;;;;;;;;;;;;;15.15;78.05;94858.09;5137380;27;1024;-48
2022/05/23 04:53:08;;;;;;;;;;;;;;;15.11;77.50;94853.31;5137112;27;1000;-48
2022/05/23 04:55:36;;;;;;;;;;;;;;;14.93;77.16;94872.63;5137110;27;1091;-48
2022/05/23 04:58:03;;;;;;;;;;;;;;;15.04;77.17;94850.56;5137324;27;1909;-48
2022/05/23 05:00:30;;;;;;;;;;;;;;;15.27;75.68;94842.25;5137381;27;1023;-48
2022/05/23 05:02:59;;;;;;;;;;;;;;;15.50;74.84;94850.03;5137167;27;979;-48
2022/05/23 05:05:29;;;;;;;;;;;;;;;15.35;74.64;94847.47;5128957;27;1211;-48
2022/05/23 05:07:56;;;;;;;;;;;;;;;15.17;73.63;94852.50;5116664;28;1059;-48
2022/05/23 05:10:23;;;;;;;;;;;;;;;15.06;74.41;94853.88;5116466;28;1980;-48
2022/05/23 05:12:53;;;;;;;;;;;;;;;15.65;73.15;94847.22;5116276;28;1032;-48
2022/05/23 05:15:20;;;;;;;;;;;;;;;16.65;69.39;94842.13;5116335;28;1083;-48
2022/05/23 05:17:46;;;;;;;;;;;;;;;17.31;68.91;94856.69;5116131;28;1898;-48
2022/05/23 05:20:13;;;;;;;;;;;;;;;16.20;70.95;94858.00;5116581;28;961;-49
2022/05/23 05:22:39;;;;;;;;;;;;;;;15.66;73.59;94851.56;5116104;28;1111;-49
2022/05/23 05:25:06;;;;;;;;;;;;;;;15.86;73.16;94856.22;5116102;28;932;-49
2022/05/23 05:27:33;;;;;;;;;;;;;;;15.36;73.82;94862.56;5116136;28;1012;-49
2022/05/23 05:29:59;;;;;;;;;;;;;;;14.97;74.88;94871.22;5116118;28;937;-49
2022/05/23 05:32:36;;;;;;;;;;;;;;;14.94;76.21;94872.44;5116342;28;981;-48
2022/05/23 05:35:05;;;;;;;;;;;;;;;14.81;77.09;94886.59;5115858;28;1013;-48
2022/05/23 05:37:33;;;;;;;;;;;;;;;14.71;76.82;94896.06;5116002;28;1906;-49
2022/05/23 05:40:02;;;;;;;;;;;;;;;14.70;78.07;94900.59;5116126;28;960;-48
2022/05/23 05:42:31;;;;;;;;;;;;;;;14.68;77.07;94905.31;5115849;28;1079;-48
2022/05/23 05:45:17;;;;;;;;;;;;;;;14.75;76.56;94900.00;5115701;28;1023;-48
2022/05/23 05:47:45;;;;;;;;;;;;;;;14.56;79.56;94910.34;5115712;28;1079;-48
2022/05/23 05:50:15;;;;;;;;;;;;;;;14.43;80.49;94913.72;5114425;28;1095;-48
2022/05/23 05:52:41;;;;;;;;;;;;;;;14.55;79.51;94900.63;5115757;28;1054;-48
2022/05/23 05:55:08;;;;;;;;;;;;;;;14.45;81.28;94905.47;5115648;28;960;-48
2022/05/23 05:57:34;;;;;;;;;;;;;;;14.37;82.41;94892.16;5115527;28;1910;-49
2022/05/23 06:00:00;;;;;;;;;;;;;;;14.48;82.04;94891.66;5115333;28;1047;-49
2022/05/23 06:02:26;;;;;;;;;;;;;;;14.60;81.04;94889.31;5115817;28;1033;-48
2022/05/23 06:04:52;;;;;;;;;;;;;;;14.77;82.41;94893.41;5119066;27;1205;-51
2022/05/23 06:12:48;;;;;;;;;;;;;;;14.95;82.40;94879.50;5136288;27;1062;-49
2022/05/23 06:15:14;;;;;;;;;;;;;;;15.15;81.53;94876.94;5135622;27;1221;-48
2022/05/23 06:17:42;;;;;;;;;;;;;;;15.21;81.31;94884.25;5135757;27;1996;-48
2022/05/23 06:20:08;;;;;;;;;;;;;;;15.36;81.84;94881.44;5135554;27;1004;-50
2022/05/23 06:22:34;;;;;;;;;;;;;;;15.57;81.16;94882.38;5135511;27;1016;-48
2022/05/23 06:25:02;;;;;;;;;;;;;;;15.53;80.69;94876.56;5135197;27;1056;-49
2022/05/23 06:27:28;;;;;;;;;;;;;;;15.56;82.26;94870.78;5135510;27;1091;-49
2022/05/23 06:29:54;;;;;;;;;;;;;;;15.60;81.92;94863.13;5135623;27;1005;-48
2022/05/23 06:32:21;;;;;;;;;;;;;;;15.78;81.99;94849.16;5135661;27;1049;-48
2022/05/23 06:34:47;;;;;;;;;;;;;;;15.96;81.06;94851.31;5135358;27;1023;-48
2022/05/23 06:37:13;;;;;;;;;;;;;;;16.09;81.00;94848.66;5135550;27;1934;-49
2022/05/23 06:39:39;;;;;;;;;;;;;;;16.24;81.25;94847.66;5134998;27;1024;-49
2022/05/23 06:42:06;;;;;;;;;;;;;;;16.54;79.47;94848.13;5135587;27;1016;-49
2022/05/23 06:44:32;;;;;;;;;;;;;;;17.26;77.01;94849.19;5135071;27;1020;-49
2022/05/23 06:46:59;;;;;;;;;;;;;;;17.90;78.23;94849.50;5135147;27;1040;-48
2022/05/23 06:49:25;;;;;;;;;;;;;;;18.57;73.71;94851.84;5134972;27;1040;-49
2022/05/23 06:51:52;;;;;;;;;;;;;;;18.95;72.03;94867.25;5135127;27;1011;-49
2022/05/23 06:54:19;;;;;;;;;;;;;;;18.30;72.08;94869.06;5133475;27;1086;-48
2022/05/23 06:56:45;;;;;;;;;;;;;;;17.85;76.37;94865.53;5135131;27;1995;-48
2022/05/23 06:59:12;;;;;;;;;;;;;;;17.75;75.97;94857.84;5135107;27;955;-48
2022/05/23 07:01:38;;;;;;;;;;;;;;;17.54;78.52;94862.44;5134741;27;1204;-48
2022/05/23 07:04:04;;;;;;;;;;;;;;;17.49;77.25;94866.81;5134900;27;1035;-49
2022/05/23 07:14:45;;;;;;;;;;;;;;;17.26;80.09;94859.19;5113991;28;1102;-48
2022/05/23 07:17:11;;;;;;;;;;;;;;;17.75;77.67;94858.66;5114039;28;2005;-49
2022/05/23 07:19:37;;;;;;;;;;;;;;;18.33;77.26;94862.41;5113990;28;1015;-49
2022/05/23 07:22:03;;;;;;;;;;;;;;;18.83;74.62;94867.13;5114262;28;1103;-49
2022/05/23 07:24:31;;;;;;;;;;;;;;;18.84;74.20;94864.22;5113908;28;1028;-49
2022/05/23 07:26:57;;;;;;;;;;;;;;;19.32;74.55;94843.81;5114006;28;1039;-49
2022/05/23 07:29:24;;;;;;;;;;;;;;;20.02;70.98;94846.22;5113952;28;1063;-49
2022/05/23 07:31:50;;;;;;;;;;;;;;;20.49;68.73;94853.75;5113789;28;985;-49
2022/05/23 07:34:17;;;;;;;;;;;;;;;20.82;69.43;94844.31;5114112;28;987;-48
2022/05/23 07:36:44;;;;;;;;;;;;;;;21.15;68.30;94843.81;5113703;28;1917;-49
2022/05/23 07:39:11;;;;;;;;;;;;;;;21.34;67.54;94844.53;5113791;28;1127;-49
2022/05/23 07:41:41;;;;;;;;;;;;;;;20.87;68.50;94844.47;5113839;28;1099;-49
2022/05/23 07:44:08;;;;;;;;;;;;;;;20.39;69.55;94853.47;5113698;28;1027;-49
2022/05/23 07:46:34;;;;;;;;;;;;;;;19.95;72.66;94867.16;5113362;28;1040;-49
2022/05/23 07:49:01;;;;;;;;;;;;;;;19.58;74.06;94885.25;5113879;28;1004;-49
2022/05/23 07:51:30;;;;;;;;;;;;;;;19.13;75.24;94899.00;5113502;28;1015;-49
2022/05/23 08:02:12;;;;;;;;;;;;;;;18.00;78.84;94878.78;5113710;28;972;-48
2022/05/23 08:04:38;;;;;;;;;;;;;;;17.81;79.29;94877.78;5114863;28;1207;-48
2022/05/23 08:07:09;;;;;;;;;;;;;;;17.81;80.42;94885.88;5134026;27;1035;-49
2022/05/23 08:09:36;;;;;;;;;;;;;;;17.75;81.10;94884.88;5133925;27;965;-49
2022/05/23 08:12:04;;;;;;;;;;;;;;;17.61;79.55;94881.38;5134779;27;1015;-48
2022/05/23 08:14:30;;;;;;;;;;;;;;;17.51;80.67;94867.44;5138087;27;1135;-48
2022/05/23 08:16:56;;;;;;;;;;;;;;;17.58;81.75;94856.63;5138222;27;1909;-49
2022/05/23 08:19:22;;;;;;;;;;;;;;;17.64;80.31;94853.06;5138518;27;1011;-48
2022/05/23 08:21:50;;;;;;;;;;;;;;;17.67;79.66;94853.47;5137885;27;1020;-49
2022/05/23 08:24:16;;;;;;;;;;;;;;;17.70;80.68;94852.22;5137805;27;1102;-49
2022/05/23 08:26:43;;;;;;;;;;;;;;;17.75;80.70;94853.25;5137740;27;1035;-49
2022/05/23 08:29:09;;;;;;;;;;;;;;;17.65;82.12;94852.06;5138249;27;1042;-49
2022/05/23 08:31:36;;;;;;;;;;;;;;;17.69;83.25;94855.97;5137756;27;1043;-49
2022/05/23 08:34:02;;;;;;;;;;;;;;;17.84;82.59;94861.13;5136570;27;1028;-48
2022/05/23 08:36:28;;;;;;;;;;;;;;;17.90;80.98;94854.91;5137485;27;1909;-49
2022/05/23 08:38:55;;;;;;;;;;;;;;;17.88;81.09;94846.19;5137632;27;1094;-49
2022/05/23 08:41:21;;;;;;;;;;;;;;;17.95;82.46;94846.97;5137530;27;1043;-49
2022/05/23 08:44:06;;;;;;;;;;;;;;;18.14;83.50;94847.94;5137717;27;1227;-49
2022/05/23 08:46:35;;;;;;;;;;;;;;;18.39;80.90;94841.78;5137540;27;979;-49
2022/05/23 08:49:18;;;;;;;;;;;;;;;19.31;76.71;94836.72;5137505;27;1044;-49
2022/05/23 08:51:48;;;;;;;;;;;;;;;20.36;71.92;94835.75;5137606;27;957;-48
2022/05/23 08:54:17;;;;;;;;;;;;;;;20.90;70.34;94835.00;5137593;27;979;-49
2022/05/23 08:56:47;;;;;;;;;;;;;;;20.95;69.70;94827.81;5137067;27;2008;-49
2022/05/23 08:59:22;;;;;;;;;;;;;;;20.90;70.86;94829.56;5137415;27;1236;-49
2022/05/23 09:01:58;;;;;;;;;;;;;;;21.08;71.47;94829.50;5137366;27;1115;-49
2022/05/23 09:04:42;;;;;;;;;;;;;;;20.68;73.64;94824.69;5137427;27;977;-49
2022/05/23 09:07:13;;;;;;;;;;;;;;;20.26;75.12;94832.75;5116709;27;1047;-49
2022/05/23 09:09:39;;;;;;;;;;;;;;;20.24;74.65;94824.00;5116698;28;1043;-49
2022/05/23 09:12:10;;;;;;;;;;;;;;;20.25;77.58;94825.69;5116438;28;1078;-49
2022/05/23 09:14:37;;;;;;;;;;;;;;;20.28;77.21;94827.94;5116330;28;1227;-49
2022/05/23 09:17:06;;;;;;;;;;;;;;;20.16;77.41;94830.56;5116534;28;1985;-49
2022/05/23 09:19:32;;;;;;;;;;;;;;;20.17;76.88;94836.84;5116270;28;1024;-49
2022/05/23 09:22:13;;;;;;;;;;;;;;;20.11;77.35;94824.19;5116239;28;1143;-48
2022/05/23 09:24:45;;;;;;;;;;;;;;;20.27;76.88;94818.13;5115929;28;976;-49
2022/05/23 09:27:25;;;;;;;;;;;;;;;20.74;74.12;94821.03;5116349;28;964;-49
2022/05/23 09:29:52;;;;;;;;;;;;;;;20.97;73.36;94817.53;5116458;28;991;-49
2022/05/23 09:32:22;;;;;;;;;;;;;;;21.41;71.60;94822.66;5116359;28;1047;-49
2022/05/23 09:34:51;;;;;;;;;;;;;;;22.02;69.64;94825.91;5116144;28;1027;-48
2022/05/23 09:37:20;;;;;;;;;;;;;;;21.90;70.51;94820.50;5115739;28;2017;-48
2022/05/23 09:40:05;;;;;;;;;;;;;;;21.83;68.73;94808.91;5116232;28;1105;-49
2022/05/23 09:48:12;;;;;;;;;;;;;;;22.02;66.23;94813.16;5115906;28;1038;-49
2022/05/23 09:50:40;;;;;;;;;;;;;;;21.86;68.42;94818.50;5116353;28;1055;-49
2022/05/23 09:53:16;;;;;;;;;;;;;;;21.95;67.98;94801.56;5115949;28;991;-49
2022/05/23 09:55:43;;;;;;;;;;;;;;;21.96;67.19;94811.34;5115436;27;1110;-49
2022/05/23 09:58:11;;;;;;;;;;;;;;;21.99;67.56;94804.63;5115748;28;1985;-49
2022/05/23 10:00:39;;;;;;;;;;;;;;;22.00;68.53;94815.25;5115810;28;973;-49
2022/05/23 10:03:18;;;;;;;;;;;;;;;22.00;68.94;94809.00;5115628;28;969;-49
2022/05/23 10:05:49;;;;;;;;;;;;;;;21.89;68.01;94807.94;5126536;27;1153;-49
2022/05/23 10:08:27;;;;;;;;;;;;;;;21.76;68.21;94808.19;5135915;27;1012;-49
2022/05/23 10:10:55;;;;;;;;;;;;;;;21.54;67.55;94810.72;5136384;27;1289;-48
2022/05/23 10:13:32;;;;;;;;;;;;;;;21.41;68.09;94812.59;5134604;27;1242;-48
2022/05/23 10:16:15;;;;;;;;;;;;;;;21.41;69.17;94809.03;5136049;27;1986;-49
2022/05/23 10:18:48;;;;;;;;;;;;;;;21.42;70.52;94802.56;5135723;27;1036;-49
2022/05/23 10:21:35;;;;;;;;;;;;;;;21.76;68.98;94797.31;5135991;27;968;-49
2022/05/23 10:24:04;;;;;;;;;;;;;;;22.43;67.85;94804.97;5135523;27;991;-49
2022/05/23 10:26:33;;;;;;;;;;;;;;;22.83;66.98;94805.97;5135968;27;1051;-48
2022/05/23 10:29:09;;;;;;;;;;;;;;;22.72;66.68;94803.03;5135600;27;1035;-49
2022/05/23 10:31:37;;;;;;;;;;;;;;;22.77;67.21;94802.31;5135766;27;965;-49
2022/05/23 10:34:22;;;;;;;;;;;;;;;22.91;67.06;94794.63;5135269;27;1083;-49
2022/05/23 10:36:49;;;;;;;;;;;;;;;23.04;68.38;94786.16;5135190;27;1982;-49
2022/05/23 10:42:07;;;;;;;;;;;;;;;23.02;66.86;94771.94;5135399;27;1050;-48
2022/05/23 10:44:41;;;;;;;;;;;;;;;23.57;64.44;94779.31;5135041;27;1020;-49
2022/05/23 10:47:10;;;;;;;;;;;;;;;24.04;61.98;94774.50;5135562;27;1019;-49
2022/05/23 10:49:47;;;;;;;;;;;;;;;24.07;60.68;94765.78;5134871;27;1040;-49
2022/05/23 10:52:37;;;;;;;;;;;;;;;24.23;57.69;94761.34;5135565;27;1028;-49
2022/05/23 10:55:12;;;;;;;;;;;;;;;24.39;57.40;94770.53;5096750;27;1300;-49
2022/05/23 10:57:50;;;;;;;;;;;;;;;24.47;58.55;94759.97;5134908;27;1902;-49
2022/05/23 11:00:22;;;;;;;;;;;;;;;24.34;58.26;94760.38;5134854;27;1071;-49
2022/05/23 11:03:00;;;;;;;;;;;;;;;24.38;57.68;94761.50;5134879;27;1212;-49
2022/05/23 11:05:47;;;;;;;;;;;;;;;24.37;55.71;94759.84;5126677;27;1220;-49
2022/05/23 11:08:29;;;;;;;;;;;;;;;24.52;55.03;94753.75;5113974;28;1289;-49
2022/05/23 11:11:02;;;;;;;;;;;;;;;24.55;56.79;94748.59;5114427;28;1131;-49
2022/05/23 11:13:51;;;;;;;;;;;;;;;24.62;57.11;94744.81;5114099;28;1007;-49
2022/05/23 11:16:29;;;;;;;;;;;;;;;24.42;55.69;94742.69;5113991;28;1906;-49
2022/05/23 11:18:58;;;;;;;;;;;;;;;24.36;56.17;94739.91;5113875;28;1834;-49
2022/05/23 11:21:43;;;;;;;;;;;;;;;24.50;56.69;94737.56;5114112;28;1003;-49
2022/05/23 11:24:15;;;;;;;;;;;;;;;24.59;55.46;94737.97;5113590;28;1024;-48
2022/05/23 11:26:47;;;;;;;;;;;;;;;24.69;54.12;94735.31;5114050;28;1039;-49
2022/05/23 11:34:42;;;;;;;;;;;;;;;24.59;54.06;94735.25;5113600;28;1096;-49
2022/05/23 11:37:42;;;;;;;;;;;;;;;24.39;52.60;94735.00;5114031;28;1917;-49
2022/05/23 11:39:57;;;;;;;;;;;;;;;24.29;53.60;94724.81;5113655;28;1508;-49
2022/05/23 11:42:42;;;;;;;;;;;;;;;24.32;54.53;94730.56;5113901;28;966;-49
2022/05/23 11:48:30;;;;;;;;;;;;;;;24.85;53.77;94719.03;5112737;28;1048;-49
2022/05/23 11:51:07;;;;;;;;;;;;;;;25.10;54.07;94715.69;5113652;28;1075;-49
2022/05/23 11:53:34;;;;;;;;;;;;;;;24.94;51.95;94709.28;5113645;28;991;-49
2022/05/23 11:59:25;;;;;;;;;;;;;;;24.88;52.87;94713.88;5113714;28;659;-49
2022/05/23 12:02:18;;;;;;;;;;;;;;;25.01;53.07;94703.59;5113371;28;972;-49
2022/05/23 12:04:44;;;;;;;;;;;;;;;25.08;52.67;94698.69;5114281;28;1700;-49
2022/05/23 12:07:28;;;;;;;;;;;;;;;25.07;51.59;94703.34;5134061;27;1035;-49
2022/05/23 12:09:54;;;;;;;;;;;;;;;25.18;52.47;94690.59;5133784;28;1064;-49
2022/05/23 12:12:29;;;;;;;;;;;;;;;25.36;52.67;94694.81;5133967;28;1012;-48
2022/05/23 12:14:56;;;;;;;;;;;;;;;25.56;52.16;94687.81;5133606;28;1242;-49
2022/05/23 12:17:25;;;;;;;;;;;;;;;25.75;49.83;94696.38;5134108;27;1987;-49
2022/05/23 12:19:56;;;;;;;;;;;;;;;25.82;49.41;94692.31;5134071;27;1030;-49
2022/05/23 12:22:27;;;;;;;;;;;;;;;25.75;49.37;94686.25;5133888;27;1004;-49
2022/05/23 12:24:56;;;;;;;;;;;;;;;25.72;49.86;94689.50;5133769;27;965;-49
2022/05/23 12:27:42;;;;;;;;;;;;;;;25.71;49.62;94685.16;5134036;27;1039;-49
2022/05/23 12:30:17;;;;;;;;;;;;;;;25.52;49.17;94680.13;5092014;27;1193;-49
2022/05/23 12:32:45;;;;;;;;;;;;;;;25.74;51.51;94681.03;5133749;28;1036;-49
2022/05/23 12:35:14;;;;;;;;;;;;;;;25.79;48.23;94683.81;5133582;27;1083;-49
2022/05/23 12:38:00;;;;;;;;;;;;;;;25.89;47.49;94672.88;5133546;27;1905;-49
2022/05/23 12:40:45;;;;;;;;;;;;;;;25.79;46.43;94667.38;5133512;28;1775;-49
2022/05/23 12:43:26;;;;;;;;;;;;;;;25.90;48.58;94661.66;5133799;28;1012;-49
2022/05/23 12:45:52;;;;;;;;;;;;;;;25.98;47.65;94667.75;5133536;27;1024;-49
2022/05/23 12:48:27;;;;;;;;;;;;;;;26.14;49.58;94665.84;5133629;27;1044;-49
2022/05/23 12:50:53;;;;;;;;;;;;;;;26.29;48.84;94666.72;5133784;28;1041;-49
2022/05/23 12:53:19;;;;;;;;;;;;;;;26.21;47.38;94667.22;5133619;28;1187;-49
2022/05/23 12:56:05;;;;;;;;;;;;;;;25.95;46.16;94669.09;5133424;28;961;-49
2022/05/23 12:58:31;;;;;;;;;;;;;;;25.67;48.10;94660.22;5134848;27;1028;-49
2022/05/23 13:00:59;;;;;;;;;;;;;;;25.69;46.72;94657.22;5137224;27;1102;-50
2022/05/23 13:04:01;;;;;;;;;;;;;;;25.65;47.81;94667.03;5137315;27;1043;-49
2022/05/23 13:06:27;;;;;;;;;;;;;;;25.54;47.82;94657.16;5120200;27;1088;-49
2022/05/23 13:08:56;;;;;;;;;;;;;;;25.54;48.52;94657.97;5116886;28;1048;-49
2022/05/23 13:11:29;;;;;;;;;;;;;;;25.51;47.02;94653.84;5116573;28;953;-50
2022/05/23 13:13:58;;;;;;;;;;;;;;;25.41;48.50;94647.50;5116567;28;1201;-50
2022/05/23 13:16:31;;;;;;;;;;;;;;;25.36;47.96;94648.28;5116202;28;1906;-50
2022/05/23 13:22:12;;;;;;;;;;;;;;;25.60;47.92;94631.44;5116482;28;963;-50
2022/05/23 13:24:49;;;;;;;;;;;;;;;25.58;48.55;94625.41;5116403;28;991;-50
2022/05/23 13:27:24;;;;;;;;;;;;;;;25.66;49.19;94622.97;5116418;28;1219;-49
2022/05/23 13:29:51;;;;;;;;;;;;;;;25.65;47.28;94621.34;5116480;28;960;-49
2022/05/23 13:32:18;;;;;;;;;;;;;;;25.60;47.48;94618.56;5116354;28;1046;-49
2022/05/23 13:34:45;;;;;;;;;;;;;;;25.57;47.83;94623.75;5116097;28;1071;-50
2022/05/23 13:37:23;;;;;;;;;;;;;;;25.47;48.32;94625.38;5115817;28;1905;-50
2022/05/23 13:39:50;;;;;;;;;;;;;;;25.40;46.62;94619.34;5115982;28;1083;-49
2022/05/23 13:42:20;;;;;;;;;;;;;;;25.19;47.73;94623.00;5116033;28;1036;-49
2022/05/23 13:44:47;;;;;;;;;;;;;;;25.01;48.89;94619.63;5115908;28;1213;-48
2022/05/23 13:47:18;;;;;;;;;;;;;;;24.98;47.85;94611.13;5115605;28;1090;-49
2022/05/23 13:49:46;;;;;;;;;;;;;;;24.98;48.40;94611.13;5115836;28;1037;-49
2022/05/23 13:52:15;;;;;;;;;;;;;;;24.98;46.48;94603.75;5115583;28;1025;-50
2022/05/23 13:54:50;;;;;;;;;;;;;;;25.05;48.04;94600.78;5115758;28;971;-51
2022/05/23 13:57:22;;;;;;;;;;;;;;;25.06;47.89;94603.28;5115735;27;1930;-51
2022/05/23 13:59:53;;;;;;;;;;;;;;;25.19;48.54;94606.59;5115720;28;2011;-51
2022/05/23 14:02:21;;;;;;;;;;;;;;;25.29;48.54;94606.69;5115376;28;1075;-51
2022/05/23 14:04:48;;;;;;;;;;;;;;;25.29;47.50;94606.69;5118130;27;1220;-51
2022/05/23 14:07:17;;;;;;;;;;;;;;;25.24;48.26;94604.75;5136184;27;939;-50
2022/05/23 14:09:51;;;;;;;;;;;;;;;25.17;48.48;94611.50;5135176;27;999;-50
2022/05/23 14:12:19;;;;;;;;;;;;;;;25.10;48.71;94612.59;5135843;27;1122;-50
2022/05/23 14:14:51;;;;;;;;;;;;;;;25.01;47.94;94611.44;5135699;27;1888;-50
2022/05/23 14:17:36;;;;;;;;;;;;;;;25.00;49.18;94619.91;5135953;27;1909;-50
2022/05/23 14:20:18;;;;;;;;;;;;;;;24.83;49.14;94609.94;5136115;27;1027;-51